Time;durP1;ratioP1;P1;durP2;ratioP2;P2;SDS_P1;SDS_P2;PMS_P1;PMS_P2;Temp;Humidity;BMP_temperature;BMP_pressure;BME280_temperature;BME280_humidity;BME280_pressure;Samples;Min_cycle;Max_cycle;Signal;HPM_P1;HPM_P2
2021/07/02 00:00:23;;;;;;;8.68;6.40;;;;;;;;;;5029716;28;20045;-77
2021/07/02 00:02:50;;;;;;;10.85;7.20;;;;;;;;;;5017472;28;20100;-79
2021/07/02 00:05:16;;;;;;;9.85;6.78;;;;;;;;;;5018472;28;20116;-78
2021/07/02 00:07:43;;;;;;;10.05;6.72;;;;;;;;;;5018671;28;20108;-79
2021/07/02 00:10:12;;;;;;;10.27;6.70;;;;;;;;;;5018463;28;20050;-79
2021/07/02 00:12:38;;;;;;;9.07;6.60;;;;;;;;;;5035463;28;20123;-79
2021/07/02 00:15:07;;;;;;;9.27;6.13;;;;;;;;;;5037422;28;20076;-79
2021/07/02 00:17:34;;;;;;;8.48;6.65;;;;;;;;;;5038549;28;20072;-79
2021/07/02 00:20:01;;;;;;;9.05;6.80;;;;;;;;;;5038129;28;20049;-79
2021/07/02 00:22:28;;;;;;;8.93;6.57;;;;;;;;;;5037819;28;20166;-79
2021/07/02 00:24:54;;;;;;;9.80;7.20;;;;;;;;;;5038136;28;20057;-80
2021/07/02 00:27:21;;;;;;;10.55;6.90;;;;;;;;;;5037855;28;20046;-79
2021/07/02 00:29:48;;;;;;;9.93;6.50;;;;;;;;;;5037795;28;20100;-79
2021/07/02 00:32:16;;;;;;;10.02;6.88;;;;;;;;;;5037214;28;20581;-79
2021/07/02 00:34:43;;;;;;;8.93;6.13;;;;;;;;;;5037583;28;20049;-79
2021/07/02 00:37:10;;;;;;;8.43;6.25;;;;;;;;;;5037202;28;20103;-79
2021/07/02 00:39:36;;;;;;;9.80;6.55;;;;;;;;;;5037820;28;20049;-79
2021/07/02 00:42:03;;;;;;;9.30;6.05;;;;;;;;;;5037340;28;20391;-79
2021/07/02 00:44:41;;;;;;;8.77;6.22;;;;;;;;;;5034670;28;20499;-78
2021/07/02 00:47:08;;;;;;;9.00;6.03;;;;;;;;;;5036953;28;20045;-79
2021/07/02 00:49:36;;;;;;;9.00;5.68;;;;;;;;;;5037650;28;20549;-79
2021/07/02 00:52:05;;;;;;;9.95;6.03;;;;;;;;;;5036698;28;20045;-79
2021/07/02 00:54:32;;;;;;;8.20;5.90;;;;;;;;;;5039580;28;20045;-79
2021/07/02 00:56:59;;;;;;;9.02;5.90;;;;;;;;;;5038617;28;20072;-79
2021/07/02 00:59:26;;;;;;;8.43;6.03;;;;;;;;;;5038042;28;20046;-79
2021/07/02 01:01:53;;;;;;;7.05;4.93;;;;;;;;;;5018901;28;20076;-79
2021/07/02 01:04:19;;;;;;;7.93;4.78;;;;;;;;;;5017960;28;20480;-79
2021/07/02 01:06:47;;;;;;;9.57;5.35;;;;;;;;;;5017112;28;20050;-79
2021/07/02 01:09:14;;;;;;;9.60;5.10;;;;;;;;;;5017157;28;20049;-79
2021/07/02 01:11:41;;;;;;;8.07;5.15;;;;;;;;;;5027299;28;20053;-80
2021/07/02 01:14:08;;;;;;;8.38;5.60;;;;;;;;;;5035698;28;20099;-79
2021/07/02 01:16:34;;;;;;;7.47;5.35;;;;;;;;;;5035365;28;20111;-78
2021/07/02 01:19:01;;;;;;;8.77;5.80;;;;;;;;;;5036499;28;20091;-79
2021/07/02 01:21:29;;;;;;;9.43;6.85;;;;;;;;;;5036688;28;20126;-79
2021/07/02 01:23:56;;;;;;;8.98;6.00;;;;;;;;;;5037013;28;20049;-79
2021/07/02 01:26:23;;;;;;;9.25;6.15;;;;;;;;;;5036867;28;20687;-79
2021/07/02 01:28:50;;;;;;;9.57;6.35;;;;;;;;;;5035921;28;20042;-79
2021/07/02 01:31:17;;;;;;;10.05;6.75;;;;;;;;;;5034740;28;20049;-79
2021/07/02 01:33:44;;;;;;;9.90;6.47;;;;;;;;;;5034256;28;20123;-79
2021/07/02 01:36:17;;;;;;;10.40;7.30;;;;;;;;;;5034370;28;20050;-79
2021/07/02 01:38:45;;;;;;;9.18;6.85;;;;;;;;;;5034017;28;20503;-79
2021/07/02 01:41:12;;;;;;;9.98;6.90;;;;;;;;;;5033983;28;20053;-79
2021/07/02 01:43:39;;;;;;;11.82;7.75;;;;;;;;;;5034225;28;20457;-79
2021/07/02 01:46:05;;;;;;;12.10;7.53;;;;;;;;;;5034548;28;20045;-79
2021/07/02 01:48:32;;;;;;;9.43;6.78;;;;;;;;;;5034764;28;20045;-80
2021/07/02 01:50:59;;;;;;;9.80;6.63;;;;;;;;;;5034037;28;20096;-79
2021/07/02 01:53:26;;;;;;;10.05;7.00;;;;;;;;;;5035177;28;20110;-79
2021/07/02 01:55:54;;;;;;;9.88;7.13;;;;;;;;;;5034859;28;20096;-80
2021/07/02 01:58:21;;;;;;;9.27;6.75;;;;;;;;;;5034697;28;20095;-80
2021/07/02 02:00:48;;;;;;;9.65;6.80;;;;;;;;;;5025025;28;20046;-80
2021/07/02 02:03:15;;;;;;;10.23;6.97;;;;;;;;;;5015272;28;20459;-80
2021/07/02 02:05:42;;;;;;;10.30;7.13;;;;;;;;;;5015808;28;20057;-80
2021/07/02 02:08:09;;;;;;;11.20;7.18;;;;;;;;;;5015330;28;20053;-80
2021/07/02 02:10:36;;;;;;;10.05;6.65;;;;;;;;;;5016424;28;20054;-78
2021/07/02 02:13:04;;;;;;;10.40;7.00;;;;;;;;;;5035093;28;20041;-78
2021/07/02 02:15:31;;;;;;;9.88;7.30;;;;;;;;;;5034910;28;20049;-78
2021/07/02 02:17:58;;;;;;;10.30;7.60;;;;;;;;;;5033358;28;20049;-78
2021/07/02 02:20:25;;;;;;;9.57;7.30;;;;;;;;;;5034591;28;20554;-78
2021/07/02 02:22:51;;;;;;;10.25;7.15;;;;;;;;;;5034821;28;20054;-79
2021/07/02 02:25:18;;;;;;;11.73;7.95;;;;;;;;;;5034807;28;20057;-79
2021/07/02 02:27:48;;;;;;;11.32;7.47;;;;;;;;;;5035123;28;20103;-79
2021/07/02 02:30:17;;;;;;;11.20;7.57;;;;;;;;;;5034747;28;20384;-79
2021/07/02 02:32:44;;;;;;;11.88;8.32;;;;;;;;;;5035222;28;20053;-80
2021/07/02 02:35:11;;;;;;;11.10;7.57;;;;;;;;;;5036899;28;20068;-80
2021/07/02 02:37:38;;;;;;;12.20;8.88;;;;;;;;;;5037174;28;20055;-80
2021/07/02 02:40:07;;;;;;;14.70;9.50;;;;;;;;;;5036986;28;20045;-79
2021/07/02 02:42:35;;;;;;;13.48;9.80;;;;;;;;;;5036659;28;20053;-79
2021/07/02 02:45:01;;;;;;;13.38;9.27;;;;;;;;;;5037407;28;20077;-79
2021/07/02 02:47:29;;;;;;;12.65;8.75;;;;;;;;;;5037443;28;20050;-79
2021/07/02 02:49:56;;;;;;;13.70;8.65;;;;;;;;;;5037497;28;20495;-79
2021/07/02 02:52:23;;;;;;;13.05;8.77;;;;;;;;;;5036855;28;20082;-79
2021/07/02 02:54:50;;;;;;;11.13;7.70;;;;;;;;;;5036243;28;20119;-80
2021/07/02 02:57:16;;;;;;;10.55;7.93;;;;;;;;;;5037324;28;20564;-80
2021/07/02 02:59:43;;;;;;;10.02;6.68;;;;;;;;;;5035833;28;20076;-79
2021/07/02 03:02:10;;;;;;;10.60;7.22;;;;;;;;;;5017363;28;20045;-79
2021/07/02 03:04:38;;;;;;;10.07;6.95;;;;;;;;;;5016700;28;20053;-80
2021/07/02 03:07:05;;;;;;;9.57;6.93;;;;;;;;;;5014209;28;20466;-79
2021/07/02 03:09:32;;;;;;;9.32;6.40;;;;;;;;;;5017178;28;20100;-79
2021/07/02 03:11:59;;;;;;;8.65;6.25;;;;;;;;;;5030042;28;20049;-79
2021/07/02 03:14:26;;;;;;;9.98;6.60;;;;;;;;;;5037648;28;20053;-79
2021/07/02 03:16:53;;;;;;;9.38;6.35;;;;;;;;;;5036038;28;20427;-78
2021/07/02 03:19:20;;;;;;;11.38;7.70;;;;;;;;;;5036316;28;20560;-78
2021/07/02 03:21:49;;;;;;;11.60;7.40;;;;;;;;;;5036776;28;20045;-80
2021/07/02 03:24:15;;;;;;;8.68;6.45;;;;;;;;;;5035966;28;20049;-78
2021/07/02 03:26:42;;;;;;;10.93;7.10;;;;;;;;;;5036172;28;20096;-78
2021/07/02 03:29:09;;;;;;;11.38;8.18;;;;;;;;;;5036709;28;20069;-79
2021/07/02 03:31:36;;;;;;;12.35;8.10;;;;;;;;;;5037306;28;20092;-79
2021/07/02 03:34:04;;;;;;;11.23;8.60;;;;;;;;;;5037811;28;20453;-80
2021/07/02 03:36:31;;;;;;;12.02;8.40;;;;;;;;;;5037889;28;20510;-79
2021/07/02 03:38:59;;;;;;;10.70;7.53;;;;;;;;;;5038480;28;20050;-79
2021/07/02 03:41:25;;;;;;;11.55;8.27;;;;;;;;;;5036587;28;20080;-78
2021/07/02 03:43:52;;;;;;;10.02;7.80;;;;;;;;;;5037395;28;20557;-79
2021/07/02 03:46:19;;;;;;;11.60;7.72;;;;;;;;;;5038948;28;20041;-80
2021/07/02 03:48:46;;;;;;;9.82;7.40;;;;;;;;;;5038142;28;20045;-79
2021/07/02 03:51:13;;;;;;;10.13;6.63;;;;;;;;;;5037681;28;20080;-79
2021/07/02 03:53:40;;;;;;;10.90;7.05;;;;;;;;;;5037506;28;20565;-79
2021/07/02 03:56:08;;;;;;;8.88;6.13;;;;;;;;;;5038005;28;20045;-79
2021/07/02 03:58:35;;;;;;;10.23;6.60;;;;;;;;;;5037546;28;20049;-79
2021/07/02 04:01:02;;;;;;;9.93;6.80;;;;;;;;;;5037545;28;20049;-79
2021/07/02 04:03:29;;;;;;;10.27;6.82;;;;;;;;;;5038028;28;20079;-79
2021/07/02 04:05:56;;;;;;;9.48;6.53;;;;;;;;;;5037016;28;20514;-79
2021/07/02 04:08:23;;;;;;;9.77;6.68;;;;;;;;;;5037851;28;20045;-79
2021/07/02 04:10:50;;;;;;;12.02;7.40;;;;;;;;;;5034306;28;20061;-79
2021/07/02 04:13:18;;;;;;;10.20;6.95;;;;;;;;;;5021701;28;20095;-79
2021/07/02 04:15:45;;;;;;;9.65;6.57;;;;;;;;;;5025499;28;20522;-80
2021/07/02 04:18:12;;;;;;;9.95;6.60;;;;;;;;;;5026411;28;20169;-79
2021/07/02 04:20:39;;;;;;;9.70;6.68;;;;;;;;;;5026619;28;20124;-79
2021/07/02 04:23:06;;;;;;;9.40;6.50;;;;;;;;;;5022492;28;20045;-80
2021/07/02 04:25:33;;;;;;;9.30;6.68;;;;;;;;;;5019515;28;20061;-79
2021/07/02 04:28:00;;;;;;;9.55;6.57;;;;;;;;;;5021976;28;20491;-79
2021/07/02 04:30:28;;;;;;;18.73;14.57;;;;;;;;;;5021197;28;20050;-79
2021/07/02 04:32:55;;;;;;;11.02;7.72;;;;;;;;;;5021903;28;20054;-79
2021/07/02 04:35:24;;;;;;;10.77;8.13;;;;;;;;;;5019008;28;20092;-81
2021/07/02 04:37:51;;;;;;;12.77;8.18;;;;;;;;;;5020423;28;20061;-79
2021/07/02 04:40:20;;;;;;;9.60;6.60;;;;;;;;;;5023801;28;20056;-79
2021/07/02 04:42:47;;;;;;;12.77;7.70;;;;;;;;;;5022687;28;20544;-79
2021/07/02 04:45:15;;;;;;;10.02;7.55;;;;;;;;;;5021894;28;20050;-79
2021/07/02 04:47:49;;;;;;;10.70;7.07;;;;;;;;;;5021665;28;20055;-80
2021/07/02 04:50:16;;;;;;;12.60;8.05;;;;;;;;;;5020422;28;20049;-79
2021/07/02 04:52:42;;;;;;;11.45;8.40;;;;;;;;;;5019646;28;20092;-79
2021/07/02 04:55:13;;;;;;;10.82;7.30;;;;;;;;;;5019505;28;20049;-79
2021/07/02 04:57:39;;;;;;;10.95;7.63;;;;;;;;;;5020419;28;20049;-80
2021/07/02 05:00:08;;;;;;;11.60;7.70;;;;;;;;;;5023213;28;20045;-79
2021/07/02 05:02:35;;;;;;;10.82;7.70;;;;;;;;;;5027725;28;20064;-80
2021/07/02 05:05:03;;;;;;;9.73;7.35;;;;;;;;;;5028378;28;20054;-80
2021/07/02 05:07:31;;;;;;;10.75;7.25;;;;;;;;;;5028344;28;20064;-80
2021/07/02 05:10:00;;;;;;;11.68;7.63;;;;;;;;;;5024379;28;20486;-80
2021/07/02 05:12:26;;;;;;;15.20;8.30;;;;;;;;;;5033445;28;20091;-80
2021/07/02 05:14:53;;;;;;;12.98;7.78;;;;;;;;;;5039228;28;20103;-80
2021/07/02 05:17:20;;;;;;;11.68;6.95;;;;;;;;;;5036880;28;20449;-80
2021/07/02 05:19:47;;;;;;;10.80;7.28;;;;;;;;;;5037030;28;20111;-80
2021/07/02 05:22:17;;;;;;;10.93;6.90;;;;;;;;;;5037366;28;20115;-80
2021/07/02 05:24:43;;;;;;;11.63;7.82;;;;;;;;;;5037107;28;20454;-80
2021/07/02 05:27:10;;;;;;;10.13;7.07;;;;;;;;;;5036198;28;20099;-80
2021/07/02 05:29:37;;;;;;;9.85;6.85;;;;;;;;;;5036634;28;20050;-80
2021/07/02 05:32:07;;;;;;;10.48;7.07;;;;;;;;;;5035736;28;20107;-80
2021/07/02 05:34:37;;;;;;;10.27;7.10;;;;;;;;;;5036510;28;20061;-80
2021/07/02 05:37:04;;;;;;;11.40;7.40;;;;;;;;;;5036602;28;20041;-80
2021/07/02 05:39:33;;;;;;;11.23;7.53;;;;;;;;;;5036021;28;20457;-80
2021/07/02 05:42:00;;;;;;;11.07;7.18;;;;;;;;;;5035648;28;20041;-80
2021/07/02 05:44:26;;;;;;;9.45;6.85;;;;;;;;;;5036229;28;20099;-80
2021/07/02 05:46:53;;;;;;;9.50;6.68;;;;;;;;;;5035960;28;20045;-80
2021/07/02 05:49:20;;;;;;;12.25;7.10;;;;;;;;;;5035368;28;20454;-80
2021/07/02 05:51:47;;;;;;;12.07;8.05;;;;;;;;;;5035537;28;20454;-79
2021/07/02 05:54:14;;;;;;;11.70;7.20;;;;;;;;;;5035267;28;20418;-80
2021/07/02 05:56:43;;;;;;;11.38;8.00;;;;;;;;;;5035569;28;20046;-80
2021/07/02 05:59:09;;;;;;;10.07;7.07;;;;;;;;;;5035878;28;20096;-80
2021/07/02 06:01:36;;;;;;;10.07;7.10;;;;;;;;;;5019283;28;20096;-80
2021/07/02 06:04:03;;;;;;;9.68;6.53;;;;;;;;;;5016596;28;20183;-81
2021/07/02 06:06:30;;;;;;;10.32;7.03;;;;;;;;;;5015664;28;20050;-80
2021/07/02 06:08:57;;;;;;;9.73;6.22;;;;;;;;;;5015353;28;20041;-81
2021/07/02 06:11:24;;;;;;;10.07;6.80;;;;;;;;;;5023251;28;20569;-81
2021/07/02 06:13:52;;;;;;;10.05;6.57;;;;;;;;;;5035247;28;20046;-80
2021/07/02 06:16:20;;;;;;;9.77;6.45;;;;;;;;;;5035139;28;20049;-79
2021/07/02 06:18:47;;;;;;;9.63;6.60;;;;;;;;;;5035121;28;20084;-80
2021/07/02 06:21:13;;;;;;;9.80;6.80;;;;;;;;;;5035086;28;20100;-82
2021/07/02 06:23:40;;;;;;;12.02;6.80;;;;;;;;;;5035371;28;20045;-80
2021/07/02 06:26:08;;;;;;;8.90;6.85;;;;;;;;;;5035255;28;20049;-80
2021/07/02 06:28:37;;;;;;;11.13;7.25;;;;;;;;;;5035584;28;20077;-79
2021/07/02 06:31:05;;;;;;;10.32;7.05;;;;;;;;;;5034788;28;20056;-80
2021/07/02 06:33:32;;;;;;;9.68;6.82;;;;;;;;;;5034886;28;20050;-80
2021/07/02 06:35:59;;;;;;;12.43;6.85;;;;;;;;;;5035065;28;20473;-81
2021/07/02 06:38:26;;;;;;;10.75;6.30;;;;;;;;;;5035097;28;20465;-81
2021/07/02 06:40:53;;;;;;;10.77;6.60;;;;;;;;;;5035074;28;20457;-81
2021/07/02 06:43:20;;;;;;;10.40;6.78;;;;;;;;;;5037094;28;20080;-80
2021/07/02 06:45:47;;;;;;;10.27;5.97;;;;;;;;;;5038987;28;20103;-80
2021/07/02 06:48:15;;;;;;;9.02;6.35;;;;;;;;;;5038733;28;20053;-80
2021/07/02 06:50:44;;;;;;;8.48;5.90;;;;;;;;;;5039184;28;20107;-80
2021/07/02 06:53:13;;;;;;;9.68;6.05;;;;;;;;;;5039089;28;20060;-80
2021/07/02 06:55:40;;;;;;;12.45;6.47;;;;;;;;;;5038958;28;20045;-80
2021/07/02 06:58:09;;;;;;;9.43;6.65;;;;;;;;;;5039031;28;20064;-80
2021/07/02 07:00:39;;;;;;;8.73;5.60;;;;;;;;;;5031002;28;20045;-80
2021/07/02 07:03:06;;;;;;;8.95;5.72;;;;;;;;;;5019268;28;20054;-80
2021/07/02 07:05:35;;;;;;;11.23;6.20;;;;;;;;;;5024975;28;20056;-80
2021/07/02 07:08:10;;;;;;;10.00;6.45;;;;;;;;;;5021862;28;20418;-79
2021/07/02 07:10:38;;;;;;;8.65;6.05;;;;;;;;;;5017074;28;20049;-79
2021/07/02 07:13:06;;;;;;;9.07;5.38;;;;;;;;;;5017674;28;20049;-79
2021/07/02 07:15:33;;;;;;;9.18;5.40;;;;;;;;;;5017240;28;20050;-79
2021/07/02 07:18:00;;;;;;;9.77;6.05;;;;;;;;;;5017897;28;20054;-78
2021/07/02 07:20:27;;;;;;;7.68;5.40;;;;;;;;;;5018475;28;20507;-80
2021/07/02 07:22:55;;;;;;;8.98;5.90;;;;;;;;;;5019553;28;20053;-79
2021/07/02 07:25:22;;;;;;;7.90;5.10;;;;;;;;;;5019060;28;20107;-79
2021/07/02 07:27:49;;;;;;;9.13;5.38;;;;;;;;;;5019544;28;20042;-79
2021/07/02 07:30:17;;;;;;;7.90;5.18;;;;;;;;;;5019503;28;20100;-79
2021/07/02 07:32:46;;;;;;;8.52;5.60;;;;;;;;;;5020919;28;20054;-79
2021/07/02 07:35:22;;;;;;;7.50;4.90;;;;;;;;;;5020347;28;20129;-79
2021/07/02 07:37:52;;;;;;;8.20;5.00;;;;;;;;;;5020572;28;20140;-79
2021/07/02 07:40:20;;;;;;;9.38;5.13;;;;;;;;;;5019913;28;20100;-79
2021/07/02 07:42:47;;;;;;;8.38;5.40;;;;;;;;;;5019582;28;20054;-79
2021/07/02 07:45:14;;;;;;;9.20;5.30;;;;;;;;;;5020087;28;20045;-80
2021/07/02 07:47:41;;;;;;;9.18;5.13;;;;;;;;;;5020037;28;20046;-80
2021/07/02 07:50:09;;;;;;;8.95;5.60;;;;;;;;;;5019597;28;20470;-80
2021/07/02 07:52:54;;;;;;;7.72;4.90;;;;;;;;;;5019208;28;20046;-81
2021/07/02 07:55:23;;;;;;;8.45;5.70;;;;;;;;;;5018883;28;20133;-79
2021/07/02 07:57:50;;;;;;;8.38;5.22;;;;;;;;;;5019382;28;20050;-79
2021/07/02 08:00:17;;;;;;;7.32;5.25;;;;;;;;;;5020003;28;20045;-79
2021/07/02 08:02:45;;;;;;;9.15;5.25;;;;;;;;;;5019294;28;20523;-79
2021/07/02 08:05:13;;;;;;;9.65;5.78;;;;;;;;;;5019155;28;20545;-80
2021/07/02 08:07:41;;;;;;;7.93;5.00;;;;;;;;;;5018597;28;20573;-80
2021/07/02 08:10:10;;;;;;;8.27;4.85;;;;;;;;;;5019948;28;20045;-79
2021/07/02 08:12:39;;;;;;;8.18;5.00;;;;;;;;;;5036903;28;20045;-79
2021/07/02 08:15:08;;;;;;;8.77;4.88;;;;;;;;;;5039388;28;20046;-79
2021/07/02 08:17:35;;;;;;;8.02;5.35;;;;;;;;;;5102396;22;20095;-82
2021/07/02 08:20:04;;;;;;;10.80;7.60;;;;;;;;;;5087568;28;20052;-82
2021/07/02 08:22:31;;;;;;;9.05;6.18;;;;;;;;;;5084999;28;20049;-83
2021/07/02 08:24:58;;;;;;;9.07;5.90;;;;;;;;;;5082979;28;20110;-81
2021/07/02 08:27:26;;;;;;;7.75;5.13;;;;;;;;;;5085388;28;20044;-81
2021/07/02 08:29:53;;;;;;;8.13;5.07;;;;;;;;;;5083183;28;20050;-81
2021/07/02 08:32:20;;;;;;;11.15;7.18;;;;;;;;;;5084845;28;20052;-81
2021/07/02 08:34:47;;;;;;;10.32;5.78;;;;;;;;;;5078208;28;20052;-81
2021/07/02 08:37:13;;;;;;;9.07;5.75;;;;;;;;;;5077710;28;20178;-82
2021/07/02 08:39:40;;;;;;;7.38;4.85;;;;;;;;;;5077195;28;20045;-81
2021/07/02 08:42:07;;;;;;;11.15;5.22;;;;;;;;;;5077782;28;20052;-82
2021/07/02 08:44:34;;;;;;;12.40;6.25;;;;;;;;;;5076759;28;20422;-81
2021/07/02 08:47:03;;;;;;;7.80;5.15;;;;;;;;;;5077626;28;20451;-81
2021/07/02 08:49:32;;;;;;;8.95;5.22;;;;;;;;;;5078249;28;20044;-79
2021/07/02 08:51:59;;;;;;;7.85;5.20;;;;;;;;;;5096023;28;20100;-80
2021/07/02 08:54:26;;;;;;;9.18;5.05;;;;;;;;;;5092102;28;20055;-82
2021/07/02 08:56:59;;;;;;;7.03;4.88;;;;;;;;;;5092224;28;20044;-79
2021/07/02 08:59:27;;;;;;;8.98;5.28;;;;;;;;;;5093830;28;20048;-81
2021/07/02 09:01:54;;;;;;;8.45;5.05;;;;;;;;;;5082966;28;20045;-81
2021/07/02 09:04:23;;;;;;;9.38;5.60;;;;;;;;;;5081860;28;20045;-80
2021/07/02 09:07:08;;;;;;;9.43;5.70;;;;;;;;;;5082216;28;20048;-80
2021/07/02 09:09:50;;;;;;;7.93;5.45;;;;;;;;;;5076425;28;20056;-81
2021/07/02 09:12:18;;;;;;;9.02;4.70;;;;;;;;;;5077927;28;20121;-81
2021/07/02 09:15:05;;;;;;;8.55;5.40;;;;;;;;;;5081795;28;20083;-80
2021/07/02 09:17:33;;;;;;;9.27;5.32;;;;;;;;;;5082384;28;20140;-80
2021/07/02 09:20:12;;;;;;;7.32;5.45;;;;;;;;;;5081285;28;20074;-80
2021/07/02 09:22:44;;;;;;;6.82;4.50;;;;;;;;;;5095266;28;20060;-80
2021/07/02 09:25:13;;;;;;;8.05;5.10;;;;;;;;;;5093803;28;20094;-81
2021/07/02 09:27:43;;;;;;;7.78;4.80;;;;;;;;;;5084081;28;20133;-82
2021/07/02 09:30:12;;;;;;;7.32;4.95;;;;;;;;;;5084995;28;20139;-81
2021/07/02 09:32:41;;;;;;;7.32;4.90;;;;;;;;;;5080271;28;20110;-80
2021/07/02 09:35:11;;;;;;;7.18;4.50;;;;;;;;;;5085198;28;20048;-81
2021/07/02 09:37:41;;;;;;;8.45;4.93;;;;;;;;;;5085418;28;20098;-81
2021/07/02 09:40:13;;;;;;;9.25;5.18;;;;;;;;;;5086408;28;20057;-81
2021/07/02 09:42:41;;;;;;;8.05;4.90;;;;;;;;;;5085515;28;20105;-81
2021/07/02 09:45:19;;;;;;;8.10;4.68;;;;;;;;;;5086076;28;20075;-81
2021/07/02 09:47:47;;;;;;;8.88;5.07;;;;;;;;;;5085929;28;20068;-81
2021/07/02 09:50:32;;;;;;;8.70;4.90;;;;;;;;;;5085537;28;20086;-82
2021/07/02 09:53:01;;;;;;;8.45;4.78;;;;;;;;;;5086043;28;20105;-81
2021/07/02 09:55:30;;;;;;;7.05;4.80;;;;;;;;;;5085374;28;20383;-82
2021/07/02 09:58:08;;;;;;;7.90;4.82;;;;;;;;;;5085841;28;20063;-82
2021/07/02 10:00:43;;;;;;;8.32;5.18;;;;;;;;;;5086282;28;20071;-81
2021/07/02 10:03:11;;;;;;;7.20;4.68;;;;;;;;;;5088179;28;20079;-80
2021/07/02 10:05:52;;;;;;;6.93;4.32;;;;;;;;;;5087140;28;20405;-81
2021/07/02 10:08:20;;;;;;;8.02;4.35;;;;;;;;;;5086485;28;20067;-80
2021/07/02 10:10:47;;;;;;;6.40;4.45;;;;;;;;;;5083286;28;20114;-81
2021/07/02 10:15:58;;;;;;;9.27;4.40;;;;;;;;;;5087012;28;20074;-81
2021/07/02 10:18:27;;;;;;;6.40;4.28;;;;;;;;;;5088834;28;20102;-80
2021/07/02 10:20:56;;;;;;;7.78;4.38;;;;;;;;;;5088795;28;20079;-81
2021/07/02 10:23:27;;;;;;;6.68;4.05;;;;;;;;;;5090552;28;20049;-81
2021/07/02 10:25:55;;;;;;;8.00;4.50;;;;;;;;;;5086022;28;20052;-82
2021/07/02 10:28:23;;;;;;;6.38;4.30;;;;;;;;;;5083568;28;20097;-83
2021/07/02 10:30:50;;;;;;;8.27;4.55;;;;;;;;;;5082300;28;20048;-83
2021/07/02 10:33:20;;;;;;;6.78;4.20;;;;;;;;;;5084697;28;20056;-85
2021/07/02 10:35:52;;;;;;;6.15;4.10;;;;;;;;;;5090127;28;20040;-81
2021/07/02 10:38:20;;;;;;;6.65;4.38;;;;;;;;;;5089206;28;20040;-79
2021/07/02 10:40:47;;;;;;;6.13;4.43;;;;;;;;;;5081338;28;20570;-80
2021/07/02 10:43:19;;;;;;;6.45;4.30;;;;;;;;;;5083128;28;20051;-82
2021/07/02 10:46:15;;;;;;;7.35;4.53;;;;;;;;;;5084938;28;20052;-80
2021/07/02 10:48:52;;;;;;;5.97;3.83;;;;;;;;;;5082316;28;20129;-84
2021/07/02 10:51:42;;;;;;;6.35;4.25;;;;;;;;;;5078938;28;20045;-81
2021/07/02 10:54:29;;;;;;;7.13;4.35;;;;;;;;;;5079311;28;20098;-81
2021/07/02 10:57:02;;;;;;;6.50;4.15;;;;;;;;;;5080971;28;20052;-81
2021/07/02 11:00:06;;;;;;;9.70;4.35;;;;;;;;;;5080228;28;20049;-81
2021/07/02 11:02:35;;;;;;;9.73;5.63;;;;;;;;;;5063127;28;20051;-80
2021/07/02 11:05:03;;;;;;;10.25;6.28;;;;;;;;;;5067058;28;20047;-80
2021/07/02 11:07:42;;;;;;;5.22;3.55;;;;;;;;;;5059022;28;20076;-80
2021/07/02 11:10:11;;;;;;;6.10;3.92;;;;;;;;;;5059636;28;20095;-81
2021/07/02 11:13:02;;;;;;;6.18;4.00;;;;;;;;;;5077173;28;20045;-82
2021/07/02 11:15:28;;;;;;;5.47;3.47;;;;;;;;;;5086281;28;20083;-82
2021/07/02 11:18:16;;;;;;;6.88;3.90;;;;;;;;;;5081462;28;20144;-80
2021/07/02 11:20:43;;;;;;;6.35;3.97;;;;;;;;;;5078681;28;20056;-81
2021/07/02 11:23:26;;;;;;;6.75;4.32;;;;;;;;;;5079768;28;20045;-81
2021/07/02 11:26:07;;;;;;;5.40;3.50;;;;;;;;;;5089090;28;20111;-80
2021/07/02 11:28:54;;;;;;;7.50;4.25;;;;;;;;;;5089025;28;20452;-81
2021/07/02 11:31:35;;;;;;;5.20;3.72;;;;;;;;;;5085557;28;20054;-82
2021/07/02 11:34:14;;;;;;;5.32;3.65;;;;;;;;;;5085830;28;20045;-82
2021/07/02 11:37:00;;;;;;;5.05;3.28;;;;;;;;;;5081129;28;20044;-83
2021/07/02 11:39:28;;;;;;;5.25;3.38;;;;;;;;;;5084550;28;20040;-81
2021/07/02 11:42:08;;;;;;;5.60;3.30;;;;;;;;;;5085437;28;20049;-83
2021/07/02 11:44:35;;;;;;;5.68;4.13;;;;;;;;;;5081573;28;20568;-82
2021/07/02 11:47:01;;;;;;;5.10;3.65;;;;;;;;;;5088931;28;20414;-81
2021/07/02 11:49:28;;;;;;;6.57;4.10;;;;;;;;;;5087811;28;20470;-82
2021/07/02 11:51:55;;;;;;;5.75;3.35;;;;;;;;;;5081594;28;20052;-82
2021/07/02 11:54:23;;;;;;;5.95;4.15;;;;;;;;;;5083446;28;20052;-83
2021/07/02 11:56:50;;;;;;;6.35;4.05;;;;;;;;;;5084821;28;20053;-82
2021/07/02 11:59:19;;;;;;;5.63;3.65;;;;;;;;;;5087102;28;20044;-82
2021/07/02 12:01:49;;;;;;;5.50;3.70;;;;;;;;;;5087253;28;20045;-81
2021/07/02 12:04:20;;;;;;;5.18;3.50;;;;;;;;;;5080647;28;20436;-82
2021/07/02 12:06:48;;;;;;;5.57;3.40;;;;;;;;;;5083250;28;20069;-82
2021/07/02 12:09:16;;;;;;;6.82;3.63;;;;;;;;;;5083082;28;20130;-81
2021/07/02 12:11:46;;;;;;;5.28;3.40;;;;;;;;;;5083665;28;20053;-84
2021/07/02 12:14:16;;;;;;;6.10;4.10;;;;;;;;;;5083233;28;20048;-82
2021/07/02 12:16:47;;;;;;;6.25;4.00;;;;;;;;;;5082709;28;20059;-81
2021/07/02 12:19:16;;;;;;;4.93;3.20;;;;;;;;;;5084426;28;20074;-83
2021/07/02 12:21:51;;;;;;;6.28;3.63;;;;;;;;;;5080219;28;20059;-83
2021/07/02 12:24:21;;;;;;;6.18;3.30;;;;;;;;;;5085558;28;20104;-81
2021/07/02 12:26:51;;;;;;;5.95;3.90;;;;;;;;;;5084287;28;20075;-81
2021/07/02 12:29:18;;;;;;;4.95;3.42;;;;;;;;;;5083753;28;20044;-82
2021/07/02 12:31:48;;;;;;;5.30;3.47;;;;;;;;;;5084453;28;20044;-82
2021/07/02 12:34:18;;;;;;;4.53;3.28;;;;;;;;;;5088157;28;20052;-83
2021/07/02 12:36:55;;;;;;;6.15;3.25;;;;;;;;;;5081212;28;20045;-82
2021/07/02 12:39:26;;;;;;;6.75;3.60;;;;;;;;;;5083584;28;20126;-83
2021/07/02 12:41:53;;;;;;;6.10;4.22;;;;;;;;;;5081978;28;20044;-81
2021/07/02 12:44:22;;;;;;;6.07;4.15;;;;;;;;;;5086219;28;20066;-80
2021/07/02 12:46:51;;;;;;;7.35;4.03;;;;;;;;;;5086971;28;20085;-81
2021/07/02 12:49:19;;;;;;;5.60;3.60;;;;;;;;;;5085541;28;20105;-81
2021/07/02 12:52:01;;;;;;;5.30;4.30;;;;;;;;;;5084690;28;20048;-82
2021/07/02 12:57:16;;;;;;;5.10;3.97;;;;;;;;;;5085026;28;20052;-82
2021/07/02 12:59:45;;;;;;;6.55;3.65;;;;;;;;;;5086146;28;20067;-81
2021/07/02 13:02:23;;;;;;;4.90;3.15;;;;;;;;;;5085881;28;20044;-83
2021/07/02 13:04:49;;;;;;;5.22;3.40;;;;;;;;;;5081614;28;20056;-82
2021/07/02 13:07:16;;;;;;;5.82;3.15;;;;;;;;;;5080270;28;20394;-82
2021/07/02 13:09:43;;;;;;;5.07;3.30;;;;;;;;;;5077722;28;20485;-83
2021/07/02 13:12:11;;;;;;;4.80;3.08;;;;;;;;;;5080988;28;20070;-82
2021/07/02 13:14:40;;;;;;;4.88;3.28;;;;;;;;;;5081980;28;20048;-84
2021/07/02 13:17:07;;;;;;;5.65;3.97;;;;;;;;;;5079357;28;20058;-83
2021/07/02 13:19:35;;;;;;;7.13;4.00;;;;;;;;;;5080719;28;20102;-83
2021/07/02 13:22:16;;;;;;;5.00;3.65;;;;;;;;;;5083089;28;20106;-82
2021/07/02 13:24:46;;;;;;;5.40;3.95;;;;;;;;;;5087882;28;20125;-83
2021/07/02 13:27:18;;;;;;;7.13;3.45;;;;;;;;;;5086420;28;20044;-81
2021/07/02 13:29:45;;;;;;;4.88;3.25;;;;;;;;;;5085691;28;20440;-82
2021/07/02 13:32:23;;;;;;;5.13;3.03;;;;;;;;;;5084441;28;20044;-82
2021/07/02 13:34:51;;;;;;;5.20;3.20;;;;;;;;;;5085810;28;20112;-82
2021/07/02 13:37:27;;;;;;;4.60;2.97;;;;;;;;;;5090215;28;20056;-81
2021/07/02 13:39:53;;;;;;;5.85;3.17;;;;;;;;;;5092346;28;20044;-81
2021/07/02 13:42:25;;;;;;;5.18;3.25;;;;;;;;;;5092273;28;20139;-82
2021/07/02 13:44:59;;;;;;;4.85;2.97;;;;;;;;;;5090497;28;20044;-84
2021/07/02 13:47:28;;;;;;;4.90;3.72;;;;;;;;;;5089301;28;20558;-82
2021/07/02 13:49:56;;;;;;;4.95;3.03;;;;;;;;;;5082323;28;20094;-81
2021/07/02 13:52:25;;;;;;;4.55;2.90;;;;;;;;;;5090946;28;20048;-81
2021/07/02 13:54:52;;;;;;;4.72;3.35;;;;;;;;;;5089711;28;20107;-81
2021/07/02 13:57:19;;;;;;;4.30;2.88;;;;;;;;;;5085368;28;20052;-82
2021/07/02 13:59:46;;;;;;;4.63;3.20;;;;;;;;;;5081860;28;20076;-83
2021/07/02 14:02:14;;;;;;;5.38;3.30;;;;;;;;;;5079990;28;20048;-82
2021/07/02 14:04:40;;;;;;;4.40;3.28;;;;;;;;;;5079596;28;20056;-83
2021/07/02 14:07:09;;;;;;;6.97;4.43;;;;;;;;;;5081362;28;20574;-83
2021/07/02 14:09:36;;;;;;;5.72;4.10;;;;;;;;;;5082159;28;20444;-83
2021/07/02 14:12:04;;;;;;;6.32;3.55;;;;;;;;;;5083908;28;20048;-82
2021/07/02 14:14:30;;;;;;;4.97;3.67;;;;;;;;;;5085575;28;20056;-83
2021/07/02 14:16:57;;;;;;;5.50;3.63;;;;;;;;;;5084446;28;20122;-82
2021/07/02 14:19:25;;;;;;;5.55;3.75;;;;;;;;;;5086312;28;20048;-80
2021/07/02 14:21:51;;;;;;;4.65;3.35;;;;;;;;;;5085480;28;20080;-81
2021/07/02 14:24:20;;;;;;;4.47;3.20;;;;;;;;;;5086416;28;20049;-82
2021/07/02 14:26:47;;;;;;;5.32;3.60;;;;;;;;;;5086185;28;20047;-83
2021/07/02 14:29:13;;;;;;;4.60;3.38;;;;;;;;;;5086779;28;20060;-81
2021/07/02 14:31:40;;;;;;;5.30;3.63;;;;;;;;;;5085756;28;20066;-80
2021/07/02 14:34:07;;;;;;;4.78;3.40;;;;;;;;;;5086057;28;20048;-83
2021/07/02 14:36:34;;;;;;;4.57;3.05;;;;;;;;;;5086036;28;20053;-82
2021/07/02 14:39:01;;;;;;;4.78;3.13;;;;;;;;;;5085673;28;20048;-80
2021/07/02 14:41:29;;;;;;;5.88;3.40;;;;;;;;;;5085196;28;20044;-82
2021/07/02 14:43:56;;;;;;;6.35;3.97;;;;;;;;;;5084120;28;20049;-81
2021/07/02 14:46:22;;;;;;;5.57;4.15;;;;;;;;;;5084580;28;20044;-82
2021/07/02 14:48:49;;;;;;;5.28;4.10;;;;;;;;;;5084675;28;20071;-81
2021/07/02 14:51:16;;;;;;;6.50;4.22;;;;;;;;;;5085003;28;20071;-81
2021/07/02 14:53:43;;;;;;;5.43;4.03;;;;;;;;;;5085729;28;20044;-81